Time;durP1;ratioP1;P1;durP2;ratioP2;P2;SDS_P1;SDS_P2;PMS_P1;PMS_P2;Temp;Humidity;BMP_temperature;BMP_pressure;BME280_temperature;BME280_humidity;BME280_pressure;Samples;Min_cycle;Max_cycle;Signal;HPM_P1;HPM_P2
2022/09/20 00:00:42;;;;;;;9.05;2.53;;;11.80;99.90;;;;;;4870484;29;37522;-77
2022/09/20 00:03:09;;;;;;;11.30;2.95;;;11.90;99.90;;;;;;4881513;29;37912;-76
2022/09/20 00:05:37;;;;;;;6.10;2.30;;;11.90;99.90;;;;;;4876575;29;38959;-77
2022/09/20 00:08:05;;;;;;;7.65;2.80;;;11.90;99.90;;;;;;4864586;29;38869;-76
2022/09/20 00:10:36;;;;;;;10.43;2.40;;;11.90;99.90;;;;;;4892167;29;37110;-76
2022/09/20 00:13:06;;;;;;;8.40;2.43;;;11.90;99.90;;;;;;4882309;29;37081;-76
2022/09/20 00:15:33;;;;;;;5.13;1.35;;;11.90;99.90;;;;;;4871900;29;46580;-75
2022/09/20 00:17:59;;;;;;;5.28;2.10;;;12.00;99.90;;;;;;4886676;29;39776;-76
2022/09/20 00:20:26;;;;;;;5.93;2.33;;;11.90;99.90;;;;;;4871210;29;37077;-76
2022/09/20 00:22:52;;;;;;;5.32;2.00;;;11.90;99.90;;;;;;4871694;29;36778;-75
2022/09/20 00:25:18;;;;;;;7.95;2.13;;;11.90;99.90;;;;;;4867766;29;38088;-76
2022/09/20 00:27:45;;;;;;;10.70;2.63;;;12.00;99.90;;;;;;4866121;29;36938;-76
2022/09/20 00:30:14;;;;;;;6.65;2.15;;;12.00;99.90;;;;;;4861307;29;37530;-77
2022/09/20 00:32:40;;;;;;;8.23;1.60;;;12.00;99.90;;;;;;4867328;29;36063;-76
2022/09/20 00:35:08;;;;;;;4.53;2.17;;;12.00;99.90;;;;;;4878048;29;38182;-76
2022/09/20 00:37:39;;;;;;;9.85;2.10;;;11.90;99.90;;;;;;4885368;29;38395;-76
2022/09/20 00:40:08;;;;;;;8.88;2.00;;;11.90;99.90;;;;;;4885862;29;36549;-77
2022/09/20 00:42:35;;;;;;;4.28;2.08;;;11.90;99.90;;;;;;4891134;29;36228;-77
2022/09/20 00:45:06;;;;;;;16.90;3.72;;;11.90;99.90;;;;;;4891913;29;38970;-76
2022/09/20 00:47:38;;;;;;;4.50;2.08;;;11.90;99.90;;;;;;4888171;29;47450;-76
2022/09/20 00:50:24;;;;;;;6.65;2.58;;;11.80;99.90;;;;;;4887050;29;39999;-77
2022/09/20 00:52:57;;;;;;;8.70;2.53;;;11.80;99.90;;;;;;4877450;29;38259;-77
2022/09/20 00:55:24;;;;;;;5.45;1.92;;;11.70;99.90;;;;;;4879693;29;38056;-77
2022/09/20 00:57:51;;;;;;;6.10;1.85;;;11.70;99.90;;;;;;4878494;29;38697;-77
2022/09/20 01:02:47;;;;;;;8.63;2.47;;;11.80;99.90;;;;;;5318755;23;38866;-76
2022/09/20 01:05:16;;;;;;;10.10;2.90;;;11.80;99.90;;;;;;4868213;29;37828;-76
2022/09/20 01:07:44;;;;;;;12.82;2.33;;;11.80;99.90;;;;;;4872427;29;37769;-76
2022/09/20 01:10:10;;;;;;;13.52;3.25;;;11.80;99.90;;;;;;4888810;29;38647;-76
2022/09/20 01:12:39;;;;;;;8.85;2.40;;;11.80;99.90;;;;;;4875611;29;36248;-77
2022/09/20 01:15:08;;;;;;;8.45;2.30;;;11.80;99.90;;;;;;4873753;29;37717;-76
2022/09/20 01:17:40;;;;;;;18.95;4.05;;;11.80;99.90;;;;;;4869448;29;37743;-76
2022/09/20 01:20:11;;;;;;;8.63;3.10;;;11.90;99.90;;;;;;4893570;29;39488;-76
2022/09/20 01:23:01;;;;;;;5.40;2.33;;;11.90;99.90;;;;;;4890767;29;37087;-77
2022/09/20 01:25:39;;;;;;;4.03;2.13;;;11.90;99.90;;;;;;4887875;29;38246;-77
2022/09/20 01:28:05;;;;;;;5.40;2.15;;;11.90;99.90;;;;;;4888771;29;38992;-76
2022/09/20 01:30:40;;;;;;;8.43;2.50;;;11.90;99.90;;;;;;4890960;29;38473;-77
2022/09/20 01:33:27;;;;;;;8.80;2.40;;;11.90;99.90;;;;;;4891320;29;37309;-77
2022/09/20 01:35:57;;;;;;;7.45;2.97;;;11.90;99.90;;;;;;4892955;29;40042;-75
2022/09/20 01:38:36;;;;;;;4.07;2.35;;;11.90;99.90;;;;;;4882418;29;39061;-75
2022/09/20 01:41:18;;;;;;;3.95;2.47;;;11.90;99.90;;;;;;4886478;29;38270;-76
2022/09/20 01:43:50;;;;;;;8.18;2.60;;;11.90;99.90;;;;;;4887445;29;49402;-75
2022/09/20 01:46:28;;;;;;;5.53;2.22;;;11.80;99.90;;;;;;4886479;29;39449;-76
2022/09/20 01:49:01;;;;;;;6.68;2.63;;;11.80;99.90;;;;;;4888985;29;36497;-76
2022/09/20 01:51:43;;;;;;;5.00;2.38;;;11.70;99.90;;;;;;4885538;29;47420;-76
2022/09/20 01:54:45;;;;;;;6.50;2.80;;;11.70;99.90;;;;;;4888518;29;37390;-76
2022/09/20 01:57:11;;;;;;;10.15;3.10;;;11.60;99.90;;;;;;4830963;29;36499;-76
2022/09/20 02:00:06;;;;;;;5.93;2.80;;;11.60;99.90;;;;;;4887372;29;38231;-76
2022/09/20 02:03:11;;;;;;;4.85;2.60;;;11.60;99.90;;;;;;4869251;29;37858;-76
2022/09/20 02:05:59;;;;;;;9.25;3.42;;;11.60;99.90;;;;;;4884071;29;47241;-77
2022/09/20 02:09:01;;;;;;;5.85;3.17;;;11.60;99.90;;;;;;4868229;29;38037;-76
2022/09/20 02:11:58;;;;;;;3.53;2.83;;;11.70;99.90;;;;;;4855651;29;39897;-76
2022/09/20 02:14:53;;;;;;;11.00;3.63;;;11.70;99.90;;;;;;4876146;29;38557;-76
2022/09/20 02:17:25;;;;;;;4.78;2.50;;;11.70;99.90;;;;;;4887659;29;37465;-76
2022/09/20 02:20:11;;;;;;;7.68;3.10;;;11.60;99.90;;;;;;4888390;29;39065;-75
2022/09/20 02:23:10;;;;;;;5.03;2.75;;;11.60;99.90;;;;;;4846207;29;47925;-76
2022/09/20 02:25:51;;;;;;;6.22;2.67;;;11.50;99.90;;;;;;4884239;29;48728;-76
2022/09/20 02:28:32;;;;;;;4.88;2.40;;;11.40;99.90;;;;;;4890625;29;35908;-76
2022/09/20 02:31:15;;;;;;;3.67;2.60;;;11.30;99.90;;;;;;4888365;29;38239;-77
2022/09/20 02:34:18;;;;;;;4.10;2.67;;;11.30;99.90;;;;;;4873137;29;46757;-76
2022/09/20 02:36:44;;;;;;;;;;;11.20;99.90;;;;;;4889533;29;47187;-76
2022/09/20 02:39:34;;;;;;;4.88;3.05;;;11.10;99.90;;;;;;4872558;29;37234;-77
2022/09/20 02:42:14;;;;;;;5.40;2.75;;;11.00;99.90;;;;;;4875945;29;39741;-77
2022/09/20 02:45:05;;;;;;;4.65;2.95;;;11.00;99.90;;;;;;4893049;29;49046;-77
2022/09/20 02:47:34;;;;;;;6.22;2.67;;;10.90;99.90;;;;;;4876163;29;47014;-76
2022/09/20 02:50:24;;;;;;;6.50;2.73;;;10.90;99.90;;;;;;4876391;29;36285;-77
2022/09/20 02:53:04;;;;;;;7.45;3.20;;;10.80;99.90;;;;;;4891448;29;48631;-77
2022/09/20 02:55:58;;;;;;;4.63;2.95;;;10.80;99.90;;;;;;4866143;29;47264;-77
2022/09/20 02:59:02;;;;;;;5.90;3.15;;;10.80;99.90;;;;;;4886624;29;39755;-77
2022/09/20 03:02:09;;;;;;;5.53;2.80;;;10.80;99.90;;;;;;4884966;29;37301;-77
2022/09/20 03:05:17;;;;;;;7.80;3.72;;;10.70;99.90;;;;;;4835858;29;47112;-77
2022/09/20 03:08:14;;;;;;;4.32;2.97;;;10.70;99.90;;;;;;4869098;29;46971;-77
2022/09/20 03:10:53;;;;;;;7.10;2.90;;;10.70;99.90;;;;;;4886607;29;47214;-77
2022/09/20 03:13:57;;;;;;;7.87;3.50;;;10.70;99.90;;;;;;4876349;29;36688;-77
2022/09/20 03:16:51;;;;;;;7.40;2.93;;;10.70;99.90;;;;;;4888027;29;39639;-76
2022/09/20 03:19:53;;;;;;;6.83;3.10;;;10.70;99.90;;;;;;4886331;29;38852;-77
2022/09/20 03:22:35;;;;;;;4.40;3.03;;;10.70;99.90;;;;;;4886430;29;38680;-76
2022/09/20 03:25:34;;;;;;;6.03;3.20;;;10.70;99.90;;;;;;4886697;29;36348;-76
2022/09/20 03:28:21;;;;;;;11.18;3.35;;;10.70;99.90;;;;;;4890159;29;47984;-77
2022/09/20 03:31:16;;;;;;;8.20;3.55;;;10.70;99.90;;;;;;4891149;29;48731;-77
2022/09/20 03:34:08;;;;;;;5.30;2.70;;;10.70;99.90;;;;;;4871887;29;47373;-76
2022/09/20 03:36:46;;;;;;;4.30;2.78;;;10.80;99.90;;;;;;4884985;29;48625;-76
2022/09/20 03:40:03;;;;;;;3.38;2.47;;;10.80;99.90;;;;;;4892682;29;38186;-77
2022/09/20 03:42:30;;;;;;;4.88;2.80;;;10.90;99.90;;;;;;4845451;29;48867;-77
2022/09/20 03:45:34;;;;;;;6.80;3.15;;;10.90;99.90;;;;;;4890613;29;38233;-78
2022/09/20 03:48:12;;;;;;;5.85;2.35;;;11.00;99.90;;;;;;4888296;29;47332;-77
2022/09/20 03:50:46;;;;;;;5.10;2.97;;;11.00;99.90;;;;;;4876767;29;47498;-77
2022/09/20 03:53:28;;;;;;;8.52;3.47;;;11.10;99.90;;;;;;4887926;29;39764;-77
2022/09/20 03:56:13;;;;;;;12.07;4.00;;;11.10;99.90;;;;;;4876370;29;38210;-77
2022/09/20 03:58:45;;;;;;;6.93;1.90;;;11.10;99.90;;;;;;4885300;29;47245;-77
2022/09/20 04:01:33;;;;;;;11.73;2.33;;;11.20;99.90;;;;;;4888905;29;38732;-76
2022/09/20 04:04:14;;;;;;;8.02;2.13;;;11.30;99.90;;;;;;4873901;29;38019;-77
2022/09/20 04:06:40;;;;;;;10.30;2.10;;;11.40;99.90;;;;;;4888090;29;49124;-76
2022/09/20 04:09:06;;;;;;;11.05;1.33;;;11.50;99.90;;;;;;4874335;29;36017;-77
2022/09/20 04:12:00;;;;;;;7.78;1.77;;;11.50;99.90;;;;;;4875268;29;38433;-76
2022/09/20 04:14:31;;;;;;;7.97;2.38;;;11.60;99.90;;;;;;4894542;29;39752;-77
2022/09/20 04:17:13;;;;;;;4.75;2.10;;;11.60;99.90;;;;;;4885509;29;37159;-77
2022/09/20 04:20:25;;;;;;;5.30;1.60;;;11.60;99.90;;;;;;4875447;29;47349;-77
2022/09/20 04:22:53;;;;;;;3.47;1.30;;;11.60;99.90;;;;;;4849358;29;48928;-77
2022/09/20 04:25:26;;;;;;;7.38;1.73;;;11.60;99.90;;;;;;4849769;29;39785;-76
2022/09/20 04:28:37;;;;;;;12.35;2.42;;;11.60;99.90;;;;;;4869927;29;37230;-75
2022/09/20 04:31:35;;;;;;;4.63;1.35;;;11.70;99.90;;;;;;4884844;29;48636;-78
2022/09/20 04:34:07;;;;;;;4.93;1.60;;;11.70;99.90;;;;;;4885986;29;49549;-76
2022/09/20 04:36:53;;;;;;;4.10;1.55;;;11.70;99.90;;;;;;4889041;29;48340;-76
2022/09/20 04:39:50;;;;;;;4.13;1.85;;;11.70;99.90;;;;;;4887456;29;38869;-76
2022/09/20 04:42:45;;;;;;;11.82;2.20;;;11.70;99.90;;;;;;4867286;29;36036;-76
2022/09/20 04:45:50;;;;;;;6.93;1.67;;;11.70;99.90;;;;;;4877462;29;37981;-76
2022/09/20 04:48:26;;;;;;;9.80;2.30;;;11.70;99.90;;;;;;4872084;29;38713;-76
2022/09/20 04:51:16;;;;;;;5.00;2.13;;;11.70;99.90;;;;;;4872877;29;37317;-76
2022/09/20 04:54:03;;;;;;;7.10;1.80;;;11.60;99.90;;;;;;4869114;29;47851;-76
2022/09/20 04:57:00;;;;;;;10.10;2.35;;;11.70;99.90;;;;;;4889458;29;48777;-76
2022/09/20 04:59:46;;;;;;;9.48;2.13;;;11.70;99.90;;;;;;4880881;29;37657;-77
2022/09/20 05:02:46;;;;;;;5.00;1.83;;;11.80;99.90;;;;;;4883660;29;39498;-76
2022/09/20 05:05:31;;;;;;;7.60;2.30;;;11.80;99.90;;;;;;4887958;29;38246;-76
2022/09/20 05:08:08;;;;;;;4.38;2.45;;;11.80;99.90;;;;;;4882634;29;39643;-76
2022/09/20 05:10:49;;;;;;;4.88;1.95;;;11.80;99.90;;;;;;4887854;29;48390;-77
2022/09/20 05:13:38;;;;;;;6.78;1.98;;;11.80;99.90;;;;;;4883830;29;37950;-77
2022/09/20 05:16:17;;;;;;;4.68;2.17;;;11.80;99.90;;;;;;4884190;29;38037;-77
2022/09/20 05:19:07;;;;;;;9.23;2.10;;;11.90;99.90;;;;;;4869296;29;47165;-76
2022/09/20 05:21:58;;;;;;;5.93;1.75;;;11.90;99.90;;;;;;4883752;29;47290;-77
2022/09/20 05:24:59;;;;;;;8.80;2.47;;;11.90;99.90;;;;;;4889335;29;37475;-78
2022/09/20 05:27:49;;;;;;;5.60;1.67;;;11.90;99.90;;;;;;4846154;29;37698;-78
2022/09/20 05:30:44;;;;;;;5.95;2.00;;;11.90;99.90;;;;;;4891440;29;38144;-78
2022/09/20 05:33:13;;;;;;;7.15;2.30;;;11.90;99.90;;;;;;4869149;29;38221;-76
2022/09/20 05:35:57;;;;;;;6.30;2.00;;;11.90;99.90;;;;;;4889229;29;38359;-78
2022/09/20 05:38:49;;;;;;;3.78;1.90;;;11.90;99.90;;;;;;4890252;29;37764;-80
2022/09/20 05:41:39;;;;;;;9.30;2.28;;;11.90;99.90;;;;;;4890828;29;39247;-79
2022/09/20 05:44:42;;;;;;;8.52;3.00;;;11.90;99.90;;;;;;4896983;29;37711;-82
2022/09/20 05:47:42;;;;;;;7.97;2.30;;;11.90;99.90;;;;;;4876752;29;39839;-80
2022/09/20 05:50:33;;;;;;;2.88;2.00;;;11.80;99.90;;;;;;4871368;29;37474;-78
2022/09/20 05:53:24;;;;;;;6.80;2.20;;;11.80;99.90;;;;;;4892416;29;39325;-79
2022/09/20 05:56:14;;;;;;;4.25;2.00;;;11.80;99.90;;;;;;4885140;29;47127;-79
2022/09/20 05:58:56;;;;;;;8.43;2.13;;;11.80;99.90;;;;;;4898563;29;48662;-78
2022/09/20 06:01:40;;;;;;;2.55;2.08;;;11.90;99.90;;;;;;4894949;29;36197;-78
2022/09/20 06:04:16;;;;;;;9.75;1.92;;;11.90;99.90;;;;;;4869394;29;38354;-78
2022/09/20 06:06:56;;;;;;;5.25;2.50;;;11.90;99.90;;;;;;4900299;29;38455;-80
2022/09/20 06:09:40;;;;;;;7.25;2.15;;;11.90;99.90;;;;;;4899998;29;38929;-79
2022/09/20 06:12:21;;;;;;;8.32;2.03;;;12.00;99.90;;;;;;4878708;29;35889;-79
2022/09/20 06:14:58;;;;;;;4.78;2.25;;;12.00;99.90;;;;;;4878861;29;39842;-79
2022/09/20 06:17:36;;;;;;;3.22;1.90;;;12.00;99.90;;;;;;4889853;29;39700;-79
2022/09/20 06:20:30;;;;;;;4.45;2.03;;;12.10;99.90;;;;;;4871223;29;37518;-80
2022/09/20 06:22:59;;;;;;;4.70;2.47;;;12.10;99.90;;;;;;4890930;29;47432;-77
2022/09/20 06:25:30;;;;;;;10.32;2.83;;;12.20;99.90;;;;;;4899297;29;38186;-78
2022/09/20 06:28:16;;;;;;;7.88;2.83;;;12.20;99.90;;;;;;4895668;29;38537;-78
2022/09/20 06:30:50;;;;;;;5.90;2.20;;;12.30;99.90;;;;;;4886174;29;46870;-78
2022/09/20 06:33:19;;;;;;;3.30;1.85;;;12.30;99.90;;;;;;4883862;29;36319;-79
2022/09/20 06:41:45;;;;;;;11.80;4.20;;;12.40;99.90;;;;;;4894736;29;49233;-79
2022/09/20 06:44:11;;;;;;;11.63;3.17;;;12.30;99.90;;;;;;4883492;29;36499;-79
2022/09/20 06:46:37;;;;;;;10.25;3.10;;;12.20;99.90;;;;;;4881821;29;37465;-78
2022/09/20 06:49:05;;;;;;;11.68;3.80;;;12.30;99.90;;;;;;4898742;29;40108;-78
2022/09/20 06:51:37;;;;;;;6.75;2.40;;;12.20;99.90;;;;;;4898876;29;38546;-79
2022/09/20 06:54:06;;;;;;;9.63;3.25;;;12.30;99.90;;;;;;4905546;29;37331;-79
2022/09/20 06:56:35;;;;;;;6.18;1.90;;;12.30;99.90;;;;;;4906480;29;38631;-78
2022/09/20 06:59:09;;;;;;;7.13;2.42;;;12.40;99.90;;;;;;4885548;29;38295;-79
2022/09/20 07:01:36;;;;;;;4.63;1.70;;;12.40;99.90;;;;;;4881965;29;46974;-79
2022/09/20 07:04:03;;;;;;;5.53;1.90;;;12.50;99.90;;;;;;4887983;29;36373;-78
2022/09/20 07:06:29;;;;;;;5.93;1.92;;;12.70;99.90;;;;;;4885352;29;37807;-79
2022/09/20 07:09:00;;;;;;;6.10;1.90;;;12.60;99.90;;;;;;4905489;29;37914;-79
2022/09/20 07:11:26;;;;;;;4.40;1.67;;;12.60;99.90;;;;;;4897802;29;38706;-79
2022/09/20 07:13:56;;;;;;;5.18;2.10;;;12.60;99.90;;;;;;4910506;29;38466;-79
2022/09/20 07:16:48;;;;;;;7.85;1.98;;;12.60;99.90;;;;;;4897305;29;38288;-80
2022/09/20 07:19:15;;;;;;;10.20;2.72;;;12.70;99.90;;;;;;4907021;29;40296;-79
2022/09/20 07:21:41;;;;;;;5.38;2.20;;;12.80;99.90;;;;;;4892599;29;37506;-80
2022/09/20 07:24:07;;;;;;;5.97;1.83;;;13.10;99.90;;;;;;4889704;29;37332;-80
2022/09/20 07:26:33;;;;;;;5.60;1.85;;;13.20;99.90;;;;;;4891236;29;38872;-81
2022/09/20 07:29:00;;;;;;;6.18;1.60;;;13.30;99.90;;;;;;4876693;29;37320;-82
2022/09/20 07:31:28;;;;;;;5.78;1.70;;;13.30;99.90;;;;;;4873996;29;37418;-81
2022/09/20 07:33:55;;;;;;;9.48;2.15;;;13.30;99.90;;;;;;4877029;29;36700;-83
2022/09/20 07:36:21;;;;;;;11.38;2.33;;;13.30;99.90;;;;;;4886442;29;37774;-83
2022/09/20 07:38:49;;;;;;;7.43;2.10;;;13.40;99.90;;;;;;4885973;29;39378;-82
2022/09/20 07:41:18;;;;;;;5.18;2.05;;;13.60;99.90;;;;;;4885674;29;38565;-80
2022/09/20 07:43:44;;;;;;;5.60;1.55;;;13.70;99.90;;;;;;4881896;29;39005;-81
2022/09/20 07:46:12;;;;;;;4.65;1.02;;;13.70;99.90;;;;;;4886977;29;38458;-80
2022/09/20 07:48:39;;;;;;;8.07;1.45;;;13.70;99.90;;;;;;4870849;29;39159;-80
2022/09/20 07:51:11;;;;;;;5.85;1.60;;;13.70;99.90;;;;;;4888220;29;38267;-81
2022/09/20 07:53:39;;;;;;;5.45;1.67;;;13.60;99.90;;;;;;4879367;29;50283;-82
2022/09/20 07:56:09;;;;;;;5.95;1.77;;;13.50;99.90;;;;;;4886659;29;40117;-81
2022/09/20 07:58:36;;;;;;;10.10;2.30;;;13.60;99.90;;;;;;4869650;29;37950;-82
2022/09/20 08:01:11;;;;;;;7.38;1.70;;;13.60;99.90;;;;;;4868976;29;37907;-80
2022/09/20 08:03:38;;;;;;;7.13;1.45;;;13.60;99.90;;;;;;4870871;29;47716;-80
2022/09/20 08:06:09;;;;;;;6.22;1.90;;;13.60;99.90;;;;;;4885366;29;38830;-81
2022/09/20 08:08:39;;;;;;;4.60;1.65;;;13.70;99.90;;;;;;4891316;29;48750;-80
2022/09/20 08:11:09;;;;;;;7.85;2.13;;;13.70;99.90;;;;;;4888589;29;38517;-80
2022/09/20 08:13:44;;;;;;;5.80;1.60;;;13.80;99.90;;;;;;4885448;29;38442;-80
2022/09/20 08:16:12;;;;;;;8.95;1.70;;;13.60;99.90;;;;;;4885206;29;37907;-82
2022/09/20 08:18:45;;;;;;;5.00;1.48;;;13.60;99.90;;;;;;4887866;29;39427;-80
2022/09/20 08:21:12;;;;;;;4.63;1.67;;;13.60;99.90;;;;;;4868759;29;37979;-80
2022/09/20 08:23:40;;;;;;;5.35;1.52;;;13.80;99.90;;;;;;4866093;29;37583;-81
2022/09/20 08:26:11;;;;;;;8.23;1.80;;;14.00;99.90;;;;;;4882180;29;38961;-82
2022/09/20 08:28:39;;;;;;;3.40;1.08;;;14.20;99.90;;;;;;4864942;29;37622;-79
2022/09/20 08:31:11;;;;;;;10.30;2.05;;;14.30;99.90;;;;;;4886523;29;38884;-81
2022/09/20 08:33:39;;;;;;;4.18;1.60;;;14.50;99.90;;;;;;4880899;29;48850;-82
2022/09/20 08:36:06;;;;;;;4.28;1.33;;;14.60;99.90;;;;;;4882071;29;39719;-81
2022/09/20 08:38:33;;;;;;;11.05;1.67;;;14.60;99.90;;;;;;4871662;29;38041;-83
2022/09/20 08:41:05;;;;;;;5.00;1.27;;;14.70;99.90;;;;;;4884719;29;38759;-83
2022/09/20 08:43:37;;;;;;;7.35;1.90;;;14.70;99.90;;;;;;4889516;29;47108;-82
2022/09/20 08:46:08;;;;;;;4.22;1.20;;;14.60;99.90;;;;;;4888314;29;41338;-82
2022/09/20 08:48:34;;;;;;;4.32;1.27;;;14.60;99.90;;;;;;4886884;29;46982;-82
2022/09/20 08:51:05;;;;;;;5.57;1.27;;;14.80;99.90;;;;;;4900888;29;39049;-84
2022/09/20 08:53:32;;;;;;;2.95;0.80;;;15.00;99.90;;;;;;4869241;29;47501;-82
2022/09/20 08:56:00;;;;;;;7.40;1.88;;;15.00;99.90;;;;;;4873775;29;37642;-84
2022/09/20 08:58:26;;;;;;;4.07;1.20;;;15.10;99.90;;;;;;4867867;29;39370;-83
2022/09/20 09:00:57;;;;;;;5.75;1.48;;;15.30;99.90;;;;;;4866440;29;37226;-85
2022/09/20 09:03:25;;;;;;;4.93;1.02;;;15.30;99.90;;;;;;4883351;29;37987;-82
2022/09/20 09:05:53;;;;;;;4.55;0.85;;;15.50;99.90;;;;;;4868899;29;37578;-87
2022/09/20 09:08:23;;;;;;;7.95;1.65;;;15.80;99.90;;;;;;4882924;29;38688;-83
2022/09/20 09:11:07;;;;;;;4.47;1.05;;;16.00;99.90;;;;;;4865588;29;38566;-83
2022/09/20 09:13:56;;;;;;;3.10;0.80;;;16.40;99.90;;;;;;4884400;29;49261;-83
2022/09/20 09:16:26;;;;;;;5.05;0.90;;;16.80;99.90;;;;;;4874494;29;38949;-84
2022/09/20 09:18:52;;;;;;;4.00;0.80;;;17.00;99.90;;;;;;4881353;29;40151;-82
2022/09/20 09:21:21;;;;;;;4.45;0.70;;;17.20;99.90;;;;;;4887650;29;38190;-83
2022/09/20 09:24:04;;;;;;;3.17;0.95;;;17.00;99.90;;;;;;4888305;29;37201;-82
2022/09/20 09:26:38;;;;;;;3.58;0.80;;;16.70;99.90;;;;;;4868275;29;47176;-84
2022/09/20 09:29:15;;;;;;;3.67;0.75;;;16.40;99.90;;;;;;4889239;29;39500;-83
2022/09/20 09:31:43;;;;;;;5.30;1.20;;;16.30;99.90;;;;;;4866376;29;39384;-85
2022/09/20 09:34:34;;;;;;;4.38;1.02;;;16.20;99.90;;;;;;4868690;29;37066;-84
2022/09/20 09:37:00;;;;;;;6.60;1.02;;;16.00;99.90;;;;;;4868395;29;39454;-86
2022/09/20 09:39:32;;;;;;;6.60;0.90;;;15.90;99.90;;;;;;4889531;29;38930;-85
2022/09/20 09:41:59;;;;;;;5.20;0.85;;;15.70;99.90;;;;;;4865669;29;38558;-83
2022/09/20 09:44:28;;;;;;;3.97;1.00;;;15.90;99.90;;;;;;4887337;29;37345;-85
2022/09/20 09:46:56;;;;;;;3.08;0.82;;;16.30;99.90;;;;;;4869391;29;37830;-84
2022/09/20 09:49:24;;;;;;;3.63;1.00;;;16.40;99.90;;;;;;4882057;29;39425;-85
2022/09/20 09:52:32;;;;;;;2.17;0.70;;;16.70;99.90;;;;;;4889758;29;38341;-83
2022/09/20 09:55:00;;;;;;;7.75;0.80;;;16.90;99.90;;;;;;4811655;29;47308;-84
2022/09/20 09:57:54;;;;;;;4.85;0.77;;;16.90;99.90;;;;;;4832960;29;38535;-83
2022/09/20 10:00:25;;;;;;;4.43;1.00;;;16.90;99.90;;;;;;4867114;29;38819;-83
2022/09/20 10:03:08;;;;;;;2.30;0.67;;;16.80;99.90;;;;;;4885330;29;38395;-83
2022/09/20 10:05:51;;;;;;;14.00;2.47;;;16.90;99.90;;;;;;4892919;29;47386;-84
2022/09/20 10:08:50;;;;;;;3.25;0.70;;;16.70;99.90;;;;;;4867699;29;38985;-85
2022/09/20 10:11:47;;;;;;;10.05;0.80;;;16.50;99.90;;;;;;4864419;29;37536;-86
2022/09/20 10:14:21;;;;;;;4.72;0.75;;;16.20;99.90;;;;;;4864945;29;37668;-86
2022/09/20 10:16:56;;;;;;;3.78;0.63;;;16.20;99.90;;;;;;4890036;29;38080;-83
2022/09/20 10:19:51;;;;;;;5.35;0.60;;;16.10;99.90;;;;;;4885354;29;39578;-85
2022/09/20 10:22:45;;;;;;;5.00;1.00;;;16.00;99.90;;;;;;4844206;29;38956;-86
2022/09/20 10:25:34;;;;;;;4.40;0.80;;;16.10;99.90;;;;;;4868539;29;37464;-85
2022/09/20 10:28:15;;;;;;;3.33;0.75;;;16.30;99.90;;;;;;4885208;29;38173;-86
2022/09/20 10:30:55;;;;;;;4.40;1.48;;;16.60;99.90;;;;;;4889141;29;47448;-87
2022/09/20 10:33:40;;;;;;;5.03;0.85;;;16.80;99.90;;;;;;4886715;29;39178;-88
2022/09/20 10:36:17;;;;;;;5.63;0.68;;;16.80;99.90;;;;;;4870811;29;37852;-86
2022/09/20 10:39:11;;;;;;;2.88;0.70;;;17.10;99.90;;;;;;4882558;29;38134;-85
2022/09/20 10:44:56;;;;;;;3.45;0.80;;;18.10;99.90;;;;;;4882841;29;39393;-82
2022/09/20 10:47:32;;;;;;;5.20;1.00;;;18.40;99.90;;;;;;4883076;29;37207;-84
2022/09/20 10:50:16;;;;;;;3.17;0.90;;;18.20;99.90;;;;;;4872131;29;36442;-84
2022/09/20 10:52:55;;;;;;;3.28;0.73;;;17.90;99.90;;;;;;4879957;29;48391;-84
2022/09/20 10:55:31;;;;;;;5.50;1.33;;;17.40;99.90;;;;;;4863435;29;38537;-88
2022/09/20 10:58:21;;;;;;;2.55;0.60;;;17.10;99.90;;;;;;4886430;29;39064;-87
2022/09/20 11:01:06;;;;;;;4.30;0.75;;;16.80;99.90;;;;;;4888674;29;49634;-87
2022/09/20 11:03:45;;;;;;;5.18;0.60;;;16.80;99.90;;;;;;4879865;29;47175;-86
2022/09/20 11:06:20;;;;;;;4.03;0.80;;;17.10;99.90;;;;;;4890013;29;38233;-88
2022/09/20 11:08:53;;;;;;;4.20;0.70;;;17.50;99.90;;;;;;4877271;29;39263;-86
2022/09/20 11:11:47;;;;;;;3.38;0.60;;;17.90;99.90;;;;;;4866321;29;38570;-86
2022/09/20 11:14:54;;;;;;;;;;;;;;;;;;;;;
2022/09/20 11:17:29;;;;;;;4.80;0.70;;;17.60;99.90;;;;;;4886718;29;39017;-87
2022/09/20 11:20:26;;;;;;;2.22;0.50;;;17.30;99.90;;;;;;4875909;29;39856;-89
2022/09/20 11:23:21;;;;;;;2.70;0.90;;;17.00;99.90;;;;;;4885936;29;48178;-89
2022/09/20 11:26:01;;;;;;;4.18;0.75;;;16.70;99.90;;;;;;4873071;29;46956;-90
2022/09/20 11:28:45;;;;;;;8.80;1.27;;;16.50;99.90;;;;;;4881812;29;39460;-91
2022/09/20 11:31:24;;;;;;;4.03;1.10;;;16.30;99.90;;;;;;4878324;29;37133;-90
2022/09/20 11:34:06;;;;;;;3.45;1.05;;;16.20;99.90;;;;;;4896298;29;37558;-90
2022/09/20 11:36:42;;;;;;;2.78;0.70;;;16.10;99.90;;;;;;4883085;29;47675;-90
2022/09/20 11:39:35;;;;;;;4.70;1.20;;;16.30;99.90;;;;;;4882532;29;38812;-89
2022/09/20 11:42:14;;;;;;;6.45;1.80;;;16.70;99.90;;;;;;4870272;29;40146;-84
2022/09/20 11:44:41;;;;;;;4.72;1.30;;;17.10;99.90;;;;;;4891554;29;48758;-83
2022/09/20 11:47:19;;;;;;;4.05;1.30;;;17.60;99.90;;;;;;4873882;29;37808;-81
2022/09/20 11:50:13;;;;;;;3.65;1.13;;;17.90;99.90;;;;;;4886358;29;39092;-80
2022/09/20 11:53:07;;;;;;;5.72;1.63;;;17.80;99.90;;;;;;4890473;29;48946;-84
2022/09/20 11:55:42;;;;;;;2.83;1.00;;;17.60;99.90;;;;;;4872589;29;47020;-84
2022/09/20 11:58:12;;;;;;;2.03;0.75;;;17.50;99.90;;;;;;4888872;29;39235;-83
2022/09/20 12:00:42;;;;;;;5.57;1.10;;;17.30;99.90;;;;;;4869780;29;38792;-84
2022/09/20 12:03:36;;;;;;;4.53;0.88;;;17.60;99.90;;;;;;4885695;29;37328;-82
2022/09/20 12:06:19;;;;;;;3.45;0.60;;;18.10;99.90;;;;;;4884339;29;36039;-81
2022/09/20 12:08:50;;;;;;;4.97;0.80;;;18.50;99.90;;;;;;4887651;29;47970;-80
2022/09/20 12:11:32;;;;;;;2.53;0.70;;;18.90;99.90;;;;;;4873652;29;37632;-80
2022/09/20 12:14:16;;;;;;;2.30;0.73;;;19.00;99.90;;;;;;4874309;29;37403;-80
2022/09/20 12:16:47;;;;;;;4.25;0.80;;;18.90;99.90;;;;;;4890933;29;47224;-80
2022/09/20 12:19:35;;;;;;;3.50;0.75;;;18.30;99.90;;;;;;4877853;29;40774;-82
2022/09/20 12:22:04;;;;;;;5.03;0.82;;;17.90;99.90;;;;;;4871898;29;37860;-81
2022/09/20 12:24:40;;;;;;;6.63;0.95;;;17.60;99.90;;;;;;4873852;29;47408;-83
2022/09/20 12:27:29;;;;;;;1.95;0.52;;;17.20;99.90;;;;;;4892521;29;37008;-85
2022/09/20 12:30:14;;;;;;;2.53;0.60;;;17.10;99.90;;;;;;4895877;29;38181;-84
2022/09/20 12:32:47;;;;;;;3.50;0.85;;;17.20;99.90;;;;;;4890791;29;48846;-85
2022/09/20 12:35:35;;;;;;;3.20;0.70;;;17.40;99.90;;;;;;4875137;29;38212;-87
2022/09/20 12:38:19;;;;;;;3.42;0.60;;;17.60;99.90;;;;;;4890533;29;37332;-83
2022/09/20 12:41:09;;;;;;;3.13;0.60;;;17.70;99.90;;;;;;4877129;29;46836;-85
2022/09/20 12:43:49;;;;;;;3.75;0.60;;;17.90;99.90;;;;;;4862617;29;46799;-84
2022/09/20 12:46:30;;;;;;;2.45;0.50;;;18.10;99.90;;;;;;4886055;29;38533;-83
2022/09/20 12:52:49;;;;;;;7.38;0.60;;;18.20;99.90;;;;;;4865681;29;36239;-82
2022/09/20 12:55:04;;;;;;;1.80;0.47;;;18.50;99.90;;;;;;4892689;29;40371;-81
2022/09/20 12:57:31;;;;;;;3.55;0.60;;;18.70;99.90;;;;;;4874882;29;47409;-81
2022/09/20 13:00:00;;;;;;;1.42;0.50;;;18.70;99.90;;;;;;4885797;29;36653;-80
2022/09/20 13:02:57;;;;;;;3.47;0.57;;;18.40;99.90;;;;;;4873084;29;37614;-80
2022/09/20 13:05:31;;;;;;;2.55;0.55;;;18.50;99.90;;;;;;4868734;29;38012;-81
2022/09/20 13:08:30;;;;;;;3.17;0.77;;;18.60;99.90;;;;;;4871485;29;38776;-82
2022/09/20 13:11:08;;;;;;;4.53;0.80;;;18.80;99.90;;;;;;4886638;29;47852;-77
2022/09/20 13:13:55;;;;;;;5.05;0.85;;;18.70;99.90;;;;;;4887882;29;46792;-82
2022/09/20 13:16:51;;;;;;;8.85;1.65;;;19.00;99.90;;;;;;4889915;29;40423;-81
2022/09/20 13:19:19;;;;;;;4.28;0.80;;;19.00;99.90;;;;;;4884452;29;38800;-82
2022/09/20 13:21:52;;;;;;;1.88;0.95;;;18.90;99.90;;;;;;4890357;29;37000;-81
2022/09/20 13:24:19;;;;;;;5.20;0.85;;;18.60;99.90;;;;;;4886125;29;38108;-82
2022/09/20 13:26:48;;;;;;;3.30;0.60;;;18.40;99.90;;;;;;4889781;29;37694;-83
2022/09/20 13:29:43;;;;;;;4.55;0.73;;;18.20;99.90;;;;;;4870121;29;37631;-82
2022/09/20 13:32:29;;;;;;;4.15;0.82;;;17.80;99.90;;;;;;4873735;29;36398;-81
2022/09/20 13:35:15;;;;;;;8.13;0.98;;;17.60;99.90;;;;;;4870124;29;37716;-83
2022/09/20 13:37:44;;;;;;;2.95;0.68;;;17.50;99.90;;;;;;4891231;29;46996;-82
2022/09/20 13:40:18;;;;;;;3.60;0.88;;;17.50;99.90;;;;;;4868035;29;37977;-83
2022/09/20 13:42:46;;;;;;;2.63;0.50;;;17.50;99.90;;;;;;4871967;29;37310;-82
2022/09/20 13:45:14;;;;;;;5.75;0.60;;;17.50;99.90;;;;;;4870527;29;38529;-81
2022/09/20 13:47:42;;;;;;;7.18;0.90;;;17.40;99.90;;;;;;4870799;29;38514;-80
2022/09/20 13:50:31;;;;;;;3.33;0.70;;;17.20;99.90;;;;;;4887232;29;38382;-82
2022/09/20 13:53:00;;;;;;;2.78;0.50;;;17.00;99.90;;;;;;4871710;29;37351;-81
2022/09/20 13:55:36;;;;;;;4.55;0.90;;;16.90;99.90;;;;;;4870555;29;39627;-84
2022/09/20 13:58:33;;;;;;;6.82;0.70;;;16.80;99.90;;;;;;4868211;29;38221;-83
2022/09/20 14:01:04;;;;;;;3.83;0.50;;;17.00;99.90;;;;;;4879419;29;48875;-82
2022/09/20 14:03:33;;;;;;;6.90;1.17;;;17.30;99.90;;;;;;4883819;29;48546;-83